createdAt,value
2022-10-13T00:04:33.186Z,6.4
2022-10-13T00:09:31.329Z,6.4
2022-10-13T00:14:29.389Z,6.3
2022-10-13T00:19:27.576Z,6.3
2022-10-13T00:24:25.780Z,6.2
2022-10-13T00:29:23.860Z,6.3
2022-10-13T00:34:22.109Z,6.3
2022-10-13T00:39:20.342Z,6.3
2022-10-13T00:44:18.442Z,6.4
2022-10-13T00:49:16.678Z,6.6
2022-10-13T00:54:15.142Z,6.8
2022-10-13T00:59:13.295Z,7
2022-10-13T01:04:11.344Z,7
2022-10-13T01:09:09.598Z,7
2022-10-13T01:14:07.800Z,7
2022-10-13T01:19:05.736Z,6.7
2022-10-13T01:24:03.663Z,6.5
2022-10-13T01:29:01.727Z,6.2
2022-10-13T01:33:59.940Z,6.2
2022-10-13T01:38:58.131Z,6.2
2022-10-13T01:43:56.454Z,6.4
2022-10-13T01:48:54.479Z,6.5
2022-10-13T01:53:52.682Z,6.5
2022-10-13T01:58:50.837Z,6.7
2022-10-13T02:03:49.188Z,6.8
2022-10-13T02:08:47.461Z,7
2022-10-13T02:13:45.881Z,6.9
2022-10-13T02:18:43.952Z,7.2
2022-10-13T02:23:41.985Z,7.1
2022-10-13T02:28:40.188Z,7.2
2022-10-13T02:33:38.267Z,7.3
2022-10-13T02:38:36.691Z,7.3
2022-10-13T02:43:34.915Z,7.3
2022-10-13T02:48:33.128Z,7.1
2022-10-13T02:53:31.035Z,7.3
2022-10-13T02:58:29.223Z,7.3
2022-10-13T03:03:27.465Z,7.3
2022-10-13T03:08:25.823Z,7.2
2022-10-13T03:13:24.125Z,7.3
2022-10-13T03:18:22.268Z,7.5
2022-10-13T03:23:20.538Z,7.5
2022-10-13T03:28:18.406Z,7.6
2022-10-13T03:33:16.601Z,7.5
2022-10-13T03:38:14.752Z,7.3
2022-10-13T03:43:13.004Z,7.2
2022-10-13T03:48:11.117Z,7.2
2022-10-13T03:53:09.443Z,7.2
2022-10-13T03:58:07.812Z,7.2
2022-10-13T04:03:06.032Z,7.2
2022-10-13T04:08:04.177Z,7.2
2022-10-13T04:13:02.526Z,7.1
2022-10-13T04:18:00.557Z,7.2
2022-10-13T04:22:58.750Z,7.2
2022-10-13T04:27:57.041Z,7.1
2022-10-13T04:32:55.373Z,7
2022-10-13T04:37:53.611Z,7.2
2022-10-13T04:42:51.894Z,7.2
2022-10-13T04:47:49.882Z,7.4
2022-10-13T04:52:48.287Z,7.4
2022-10-13T04:57:46.412Z,7.7
2022-10-13T05:02:44.747Z,7.9
2022-10-13T05:07:43.046Z,8.1
2022-10-13T05:12:41.361Z,8.3
2022-10-13T05:17:39.784Z,8.4
2022-10-13T05:22:38.186Z,8.6
2022-10-13T05:27:36.354Z,8.7
2022-10-13T05:32:34.533Z,8.6
2022-10-13T05:37:32.582Z,8.9
2022-10-13T05:42:30.893Z,9.1
2022-10-13T05:47:28.954Z,9.4
2022-10-13T05:52:27.663Z,10.2
2022-10-13T05:57:26.409Z,10.7
2022-10-13T06:02:24.719Z,11
2022-10-13T06:07:23.187Z,10.7
2022-10-13T06:12:22.283Z,11.8
2022-10-13T06:17:20.616Z,12.6
2022-10-13T06:22:19.594Z,13.1
2022-10-13T06:27:17.554Z,13.1
2022-10-13T06:32:15.906Z,13.4
2022-10-13T06:37:14.334Z,13.6
2022-10-13T06:42:12.731Z,13.8
2022-10-13T06:47:10.745Z,13.6
2022-10-13T06:52:08.966Z,13.8
2022-10-13T06:57:07.135Z,13.9
2022-10-13T07:02:05.475Z,14.2
2022-10-13T07:07:03.970Z,14.5
2022-10-13T07:12:02.517Z,14.9
2022-10-13T07:17:00.872Z,15.3
2022-10-13T07:21:59.223Z,15.6
2022-10-13T07:26:57.670Z,15.8
2022-10-13T07:31:56.250Z,16.2
2022-10-13T07:36:55.488Z,16.7
2022-10-13T07:41:54.171Z,17.3
2022-10-13T07:46:52.749Z,17.7
2022-10-13T07:51:50.885Z,17.6
2022-10-13T07:56:49.174Z,18.3
2022-10-13T08:01:48.277Z,19.1
2022-10-13T08:06:47.784Z,21.1
2022-10-13T08:11:48.904Z,24.6
2022-10-13T08:16:51.298Z,26.3
2022-10-13T08:22:02.562Z,25
2022-10-13T08:26:44.453Z,24.6
2022-10-13T08:31:42.176Z,23.4
2022-10-13T08:36:39.387Z,23
2022-10-13T08:41:38.109Z,23.5
2022-10-13T08:49:04.888Z,21.5
2022-10-13T08:54:02.273Z,21.6
2022-10-13T08:59:01.986Z,24
2022-10-13T09:04:00.922Z,23.8
2022-10-13T09:08:59.304Z,23.9
2022-10-13T09:13:58.042Z,24.8
2022-10-13T09:18:57.717Z,26.1
2022-10-13T09:23:55.220Z,24.9
2022-10-13T09:28:52.373Z,23.8
2022-10-13T09:33:50.130Z,23.8
2022-10-13T09:38:48.740Z,24.6
2022-10-13T09:43:46.696Z,24.4
2022-10-13T09:48:45.286Z,25
2022-10-13T09:53:43.397Z,24.9
2022-10-13T09:58:42.255Z,25.2
2022-10-13T10:03:40.848Z,26.4
2022-10-13T10:08:58.407Z,28.5
2022-10-13T10:13:40.037Z,29.2
2022-10-13T10:18:37.706Z,28.1
2022-10-13T10:23:34.890Z,27.3
2022-10-13T10:28:32.803Z,27.1
2022-10-13T10:33:31.276Z,28
2022-10-13T10:38:31.017Z,30.2
2022-10-13T10:43:30.633Z,32.3
2022-10-13T10:48:31.635Z,35.2
2022-10-13T10:53:30.399Z,35.6
2022-10-13T10:58:29.563Z,36.5
2022-10-13T11:03:27.441Z,35.3
2022-10-13T11:08:24.073Z,33.8
2022-10-13T11:13:21.478Z,33
2022-10-13T11:18:21.900Z,31.4
2022-10-13T11:23:15.227Z,29.7
2022-10-13T11:28:12.098Z,28.4
2022-10-13T11:33:08.953Z,27
2022-10-13T11:38:07.883Z,25.8
2022-10-13T11:43:03.825Z,25.2
2022-10-13T11:48:01.030Z,25.3
2022-10-13T11:52:59.120Z,25.2
2022-10-13T11:57:57.233Z,25.2
2022-10-13T12:02:55.664Z,25.5
2022-10-13T12:07:53.942Z,25.6
2022-10-13T12:12:52.274Z,26
2022-10-13T12:17:51.739Z,28.2
2022-10-13T12:22:51.952Z,31.4
2022-10-13T12:27:52.325Z,32.8
2022-10-13T12:32:50.815Z,33.1
2022-10-13T12:37:46.555Z,29.2
2022-10-13T12:42:41.971Z,26.6
2022-10-13T12:47:38.662Z,25.5
2022-10-13T12:52:36.450Z,25.2
2022-10-13T12:57:34.023Z,24.4
2022-10-13T13:02:31.673Z,23.9
2022-10-13T13:07:29.749Z,23.8
2022-10-13T13:12:27.451Z,23.7
2022-10-13T13:17:53.216Z,23.6
2022-10-13T13:22:23.637Z,23.1
2022-10-13T13:27:21.531Z,23.2
2022-10-13T13:32:20.309Z,22.7
2022-10-13T13:37:16.875Z,21.9
2022-10-13T13:42:14.421Z,21.3
2022-10-13T13:47:12.540Z,21.3
2022-10-13T13:52:10.587Z,21.4
2022-10-13T13:57:08.382Z,21.2
2022-10-13T14:02:06.211Z,20.8
2022-10-13T14:07:04.075Z,20.4
2022-10-13T14:12:01.935Z,19.8
2022-10-13T14:16:59.913Z,19.8
2022-10-13T14:21:57.691Z,19.4
2022-10-13T14:26:55.438Z,19.1
2022-10-13T14:31:53.201Z,18.8
2022-10-13T14:36:51.021Z,18.6
2022-10-13T14:41:48.822Z,18.1
2022-10-13T14:46:46.538Z,17.8
2022-10-13T14:51:44.064Z,17.5
2022-10-13T14:56:41.659Z,16.9
2022-10-13T15:01:39.147Z,16.7
2022-10-13T15:06:37.086Z,16.5
2022-10-13T15:11:35.059Z,16.2
2022-10-13T15:16:34.041Z,15.9
2022-10-13T15:21:32.275Z,15.5
2022-10-13T15:26:31.300Z,15.1
2022-10-13T15:31:29.206Z,14.8
2022-10-13T15:36:27.232Z,14.5
2022-10-13T15:41:25.246Z,14.1
2022-10-13T15:46:23.210Z,13.8
2022-10-13T15:51:21.087Z,13.7
2022-10-13T15:56:19.290Z,13.6
2022-10-13T16:01:17.512Z,13.4
2022-10-13T16:06:15.698Z,13.4
2022-10-13T16:11:13.771Z,13.4
2022-10-13T16:16:11.937Z,13.4
2022-10-13T16:21:12.330Z,13.3
2022-10-13T16:26:08.129Z,13.2
2022-10-13T16:31:06.308Z,13.1
2022-10-13T16:36:04.110Z,13
2022-10-13T16:41:02.333Z,13
2022-10-13T16:46:00.706Z,13.1
2022-10-13T16:50:58.719Z,13
2022-10-13T16:55:56.800Z,13.1
2022-10-13T17:00:55.066Z,13.1
2022-10-13T17:05:53.129Z,13.1
2022-10-13T17:10:57.448Z,13.2
2022-10-13T17:15:49.793Z,13.3
2022-10-13T17:20:48.143Z,13.4
2022-10-13T17:25:46.484Z,13.4
2022-10-13T17:30:45.068Z,13.3
2022-10-13T17:35:42.841Z,13.4
2022-10-13T17:40:41.044Z,13.4
2022-10-13T17:45:39.429Z,13.3
2022-10-13T17:50:37.892Z,13
2022-10-13T17:55:36.135Z,13.3
2022-10-13T18:00:48.820Z,13.2
2022-10-13T18:05:32.359Z,13.1
2022-10-13T18:10:33.946Z,13.1
2022-10-13T18:15:28.624Z,13
2022-10-13T18:20:26.577Z,12.6
2022-10-13T18:25:24.849Z,12.7
2022-10-13T18:30:22.899Z,12.5
2022-10-13T18:35:20.966Z,12.5
2022-10-13T18:40:19.265Z,12.4
2022-10-13T18:45:17.524Z,12.4
2022-10-13T18:50:15.846Z,12.2
2022-10-13T18:55:13.989Z,12.1
2022-10-13T19:00:12.126Z,11.9
2022-10-13T19:05:10.236Z,11.7
2022-10-13T19:10:08.070Z,11.5
2022-10-13T19:15:05.999Z,11.5
2022-10-13T19:20:03.865Z,11.3
2022-10-13T19:25:01.877Z,11.1
2022-10-13T19:29:59.881Z,10.9
2022-10-13T19:34:58.095Z,10.8
2022-10-13T19:39:56.258Z,10.6
2022-10-13T19:44:54.314Z,10.7
2022-10-13T19:49:52.624Z,10.6
2022-10-13T19:54:50.782Z,10.6
2022-10-13T19:59:48.868Z,10.6
2022-10-13T20:04:46.889Z,10.7
2022-10-13T20:09:45.037Z,10.6
2022-10-13T20:14:43.069Z,10.6
2022-10-13T20:19:41.002Z,10.7
2022-10-13T20:24:39.046Z,10.6
2022-10-13T20:29:37.286Z,10.5
2022-10-13T20:34:35.334Z,10.4
2022-10-13T20:39:33.485Z,10.4
2022-10-13T20:44:31.693Z,10.4
2022-10-13T20:49:29.973Z,10.4
2022-10-13T20:54:28.077Z,10.4
2022-10-13T20:59:26.148Z,10.4
2022-10-13T21:04:24.215Z,10.4
2022-10-13T21:09:22.422Z,10.4
2022-10-13T21:14:20.579Z,10.4
2022-10-13T21:19:18.605Z,10.4
2022-10-13T21:24:17.071Z,10.4
2022-10-13T21:29:15.377Z,10.5
2022-10-13T21:34:13.585Z,10.4
2022-10-13T21:39:11.583Z,10.4
2022-10-13T21:44:09.753Z,10.5
2022-10-13T21:49:07.871Z,10.6
2022-10-13T21:54:06.356Z,10.6
2022-10-13T21:59:04.754Z,10.5
2022-10-13T22:04:02.913Z,10.5
2022-10-13T22:09:01.040Z,10.5
2022-10-13T22:13:59.038Z,10.5
2022-10-13T22:18:57.268Z,10.4
2022-10-13T22:23:55.477Z,10.4
2022-10-13T22:28:53.694Z,10.4
2022-10-13T22:33:52.650Z,10.4
2022-10-13T22:38:50.810Z,10.4
2022-10-13T22:43:48.640Z,10.4
2022-10-13T22:48:46.616Z,10.3
2022-10-13T22:53:44.819Z,10.4
2022-10-13T22:58:42.947Z,10.4
2022-10-13T23:03:41.125Z,10.4
2022-10-13T23:08:39.371Z,10.5
2022-10-13T23:13:39.641Z,10.5
2022-10-13T23:18:37.233Z,10.5
2022-10-13T23:23:35.299Z,10.5
2022-10-13T23:28:33.699Z,10.5
2022-10-13T23:33:31.757Z,10.5
2022-10-13T23:38:29.867Z,10.4
2022-10-13T23:43:28.061Z,10.5
2022-10-13T23:48:26.394Z,10.4
2022-10-13T23:53:24.519Z,10.4
2022-10-13T23:58:22.629Z,10.4
